sensor_id;sensor_type;location;lat;lon;timestamp;P1;durP1;ratioP1;P2;durP2;ratioP2
3591;SDS011;1810;48.720;9.094;2023-05-10T00:00:31;661.95;;;624.45;;
3591;SDS011;1810;48.720;9.094;2023-05-10T00:03:00;650.58;;;614.20;;
3591;SDS011;1810;48.720;9.094;2023-05-10T00:05:30;718.05;;;674.75;;
3591;SDS011;1810;48.720;9.094;2023-05-10T00:07:59;667.97;;;630.58;;
3591;SDS011;1810;48.720;9.094;2023-05-10T00:10:27;793.58;;;742.97;;
3591;SDS011;1810;48.720;9.094;2023-05-10T00:12:57;714.30;;;671.65;;
3591;SDS011;1810;48.720;9.094;2023-05-10T00:15:25;734.78;;;689.83;;
3591;SDS011;1810;48.720;9.094;2023-05-10T00:17:54;715.17;;;672.47;;
3591;SDS011;1810;48.720;9.094;2023-05-10T00:20:22;709.30;;;667.53;;
3591;SDS011;1810;48.720;9.094;2023-05-10T00:22:50;684.70;;;644.60;;
3591;SDS011;1810;48.720;9.094;2023-05-10T00:25:19;677.28;;;637.80;;
3591;SDS011;1810;48.720;9.094;2023-05-10T00:27:48;667.42;;;629.30;;
3591;SDS011;1810;48.720;9.094;2023-05-10T00:30:18;662.83;;;625.42;;
3591;SDS011;1810;48.720;9.094;2023-05-10T00:32:46;687.40;;;647.50;;
3591;SDS011;1810;48.720;9.094;2023-05-10T00:35:16;675.58;;;636.30;;
3591;SDS011;1810;48.720;9.094;2023-05-10T00:37:44;675.80;;;636.83;;
3591;SDS011;1810;48.720;9.094;2023-05-10T00:40:13;668.05;;;630.05;;
3591;SDS011;1810;48.720;9.094;2023-05-10T00:42:42;674.92;;;636.13;;
3591;SDS011;1810;48.720;9.094;2023-05-10T00:45:10;695.00;;;654.10;;
3591;SDS011;1810;48.720;9.094;2023-05-10T00:47:40;662.97;;;625.97;;
3591;SDS011;1810;48.720;9.094;2023-05-10T00:50:09;663.67;;;626.28;;
3591;SDS011;1810;48.720;9.094;2023-05-10T00:52:37;653.92;;;616.88;;
3591;SDS011;1810;48.720;9.094;2023-05-10T00:55:06;666.13;;;628.67;;
3591;SDS011;1810;48.720;9.094;2023-05-10T00:57:35;645.10;;;608.47;;
3591;SDS011;1810;48.720;9.094;2023-05-10T01:00:04;638.13;;;603.38;;
3591;SDS011;1810;48.720;9.094;2023-05-10T01:02:33;681.42;;;642.05;;
3591;SDS011;1810;48.720;9.094;2023-05-10T01:05:04;649.22;;;613.30;;
3591;SDS011;1810;48.720;9.094;2023-05-10T01:07:33;668.70;;;630.47;;
3591;SDS011;1810;48.720;9.094;2023-05-10T01:10:02;662.40;;;624.08;;
3591;SDS011;1810;48.720;9.094;2023-05-10T01:12:30;672.85;;;634.30;;
3591;SDS011;1810;48.720;9.094;2023-05-10T01:14:59;652.08;;;615.90;;
3591;SDS011;1810;48.720;9.094;2023-05-10T01:17:28;664.72;;;627.40;;
3591;SDS011;1810;48.720;9.094;2023-05-10T01:19:57;652.92;;;616.15;;
3591;SDS011;1810;48.720;9.094;2023-05-10T01:22:34;679.03;;;640.17;;
3591;SDS011;1810;48.720;9.094;2023-05-10T01:25:23;658.20;;;620.72;;
3591;SDS011;1810;48.720;9.094;2023-05-10T01:31:28;713.15;;;670.40;;
3591;SDS011;1810;48.720;9.094;2023-05-10T01:34:05;684.03;;;644.10;;
3591;SDS011;1810;48.720;9.094;2023-05-10T01:36:38;743.95;;;698.08;;
3591;SDS011;1810;48.720;9.094;2023-05-10T01:39:11;711.43;;;668.47;;
3591;SDS011;1810;48.720;9.094;2023-05-10T01:41:45;751.53;;;705.03;;
3591;SDS011;1810;48.720;9.094;2023-05-10T01:44:18;762.08;;;713.85;;
3591;SDS011;1810;48.720;9.094;2023-05-10T01:46:52;772.30;;;722.92;;
3591;SDS011;1810;48.720;9.094;2023-05-10T01:49:25;695.78;;;654.20;;
3591;SDS011;1810;48.720;9.094;2023-05-10T01:52:00;684.53;;;644.30;;
3591;SDS011;1810;48.720;9.094;2023-05-10T01:54:34;751.88;;;704.58;;
3591;SDS011;1810;48.720;9.094;2023-05-10T01:57:05;766.72;;;718.25;;
3591;SDS011;1810;48.720;9.094;2023-05-10T01:59:35;663.13;;;625.15;;
3591;SDS011;1810;48.720;9.094;2023-05-10T02:02:07;725.53;;;681.22;;
3591;SDS011;1810;48.720;9.094;2023-05-10T02:04:39;707.97;;;666.10;;
3591;SDS011;1810;48.720;9.094;2023-05-10T02:07:08;675.70;;;636.58;;
3591;SDS011;1810;48.720;9.094;2023-05-10T02:09:37;733.35;;;688.67;;
3591;SDS011;1810;48.720;9.094;2023-05-10T02:12:06;756.38;;;709.55;;
3591;SDS011;1810;48.720;9.094;2023-05-10T02:14:36;672.08;;;633.42;;
3591;SDS011;1810;48.720;9.094;2023-05-10T02:17:05;747.63;;;701.28;;
3591;SDS011;1810;48.720;9.094;2023-05-10T02:19:34;679.95;;;640.13;;
3591;SDS011;1810;48.720;9.094;2023-05-10T02:22:07;670.70;;;632.58;;
3591;SDS011;1810;48.720;9.094;2023-05-10T02:24:36;725.83;;;681.60;;
3591;SDS011;1810;48.720;9.094;2023-05-10T02:27:05;704.72;;;663.15;;
3591;SDS011;1810;48.720;9.094;2023-05-10T02:29:34;678.88;;;639.42;;
3591;SDS011;1810;48.720;9.094;2023-05-10T02:32:04;735.20;;;690.03;;
3591;SDS011;1810;48.720;9.094;2023-05-10T02:34:33;718.75;;;675.58;;
3591;SDS011;1810;48.720;9.094;2023-05-10T02:37:01;698.78;;;657.00;;
3591;SDS011;1810;48.720;9.094;2023-05-10T02:39:32;707.45;;;665.15;;
3591;SDS011;1810;48.720;9.094;2023-05-10T02:42:00;668.28;;;630.42;;
3591;SDS011;1810;48.720;9.094;2023-05-10T02:44:30;697.47;;;656.03;;
3591;SDS011;1810;48.720;9.094;2023-05-10T02:46:58;721.38;;;678.35;;
3591;SDS011;1810;48.720;9.094;2023-05-10T02:49:26;778.65;;;728.33;;
3591;SDS011;1810;48.720;9.094;2023-05-10T02:51:56;739.83;;;693.63;;
3591;SDS011;1810;48.720;9.094;2023-05-10T02:54:30;771.85;;;722.92;;
3591;SDS011;1810;48.720;9.094;2023-05-10T02:57:04;732.55;;;687.85;;
3591;SDS011;1810;48.720;9.094;2023-05-10T02:59:32;766.97;;;718.50;;
3591;SDS011;1810;48.720;9.094;2023-05-10T03:02:01;778.65;;;729.55;;
3591;SDS011;1810;48.720;9.094;2023-05-10T03:04:30;735.50;;;690.15;;
3591;SDS011;1810;48.720;9.094;2023-05-10T03:06:58;768.00;;;719.38;;
3591;SDS011;1810;48.720;9.094;2023-05-10T03:09:26;720.50;;;676.13;;
3591;SDS011;1810;48.720;9.094;2023-05-10T03:12:01;764.08;;;715.85;;
3591;SDS011;1810;48.720;9.094;2023-05-10T03:14:34;731.60;;;686.97;;
3591;SDS011;1810;48.720;9.094;2023-05-10T03:17:11;732.25;;;687.38;;
3591;SDS011;1810;48.720;9.094;2023-05-10T03:19:45;751.40;;;704.72;;
3591;SDS011;1810;48.720;9.094;2023-05-10T03:22:19;767.00;;;719.08;;
3591;SDS011;1810;48.720;9.094;2023-05-10T03:24:51;768.17;;;719.42;;
3591;SDS011;1810;48.720;9.094;2023-05-10T03:27:25;812.05;;;757.58;;
3591;SDS011;1810;48.720;9.094;2023-05-10T03:29:54;759.03;;;710.85;;
3591;SDS011;1810;48.720;9.094;2023-05-10T03:32:24;771.40;;;722.10;;
3591;SDS011;1810;48.720;9.094;2023-05-10T03:35:01;781.40;;;731.85;;
3591;SDS011;1810;48.720;9.094;2023-05-10T03:37:36;724.85;;;681.35;;
3591;SDS011;1810;48.720;9.094;2023-05-10T03:40:06;789.58;;;739.30;;
3591;SDS011;1810;48.720;9.094;2023-05-10T03:42:45;774.70;;;725.60;;
3591;SDS011;1810;48.720;9.094;2023-05-10T03:45:13;781.58;;;731.53;;
3591;SDS011;1810;48.720;9.094;2023-05-10T03:47:42;738.22;;;693.05;;
3591;SDS011;1810;48.720;9.094;2023-05-10T03:50:10;774.25;;;724.95;;
3591;SDS011;1810;48.720;9.094;2023-05-10T03:52:40;750.75;;;703.97;;
3591;SDS011;1810;48.720;9.094;2023-05-10T03:55:08;763.75;;;715.20;;
3591;SDS011;1810;48.720;9.094;2023-05-10T03:57:37;721.53;;;677.92;;
3591;SDS011;1810;48.720;9.094;2023-05-10T04:00:08;791.78;;;741.22;;
3591;SDS011;1810;48.720;9.094;2023-05-10T04:02:37;769.72;;;720.75;;
3591;SDS011;1810;48.720;9.094;2023-05-10T04:05:07;779.42;;;730.35;;
3591;SDS011;1810;48.720;9.094;2023-05-10T04:07:36;809.03;;;756.78;;
3591;SDS011;1810;48.720;9.094;2023-05-10T04:10:04;795.05;;;744.28;;
3591;SDS011;1810;48.720;9.094;2023-05-10T04:12:33;792.92;;;742.78;;
3591;SDS011;1810;48.720;9.094;2023-05-10T04:15:02;771.72;;;722.58;;
3591;SDS011;1810;48.720;9.094;2023-05-10T04:17:32;776.72;;;727.50;;
3591;SDS011;1810;48.720;9.094;2023-05-10T04:20:01;785.45;;;735.03;;
3591;SDS011;1810;48.720;9.094;2023-05-10T04:22:30;766.88;;;718.78;;
3591;SDS011;1810;48.720;9.094;2023-05-10T04:24:59;740.95;;;695.33;;
3591;SDS011;1810;48.720;9.094;2023-05-10T04:27:27;772.47;;;723.00;;
3591;SDS011;1810;48.720;9.094;2023-05-10T04:29:56;771.35;;;722.58;;
3591;SDS011;1810;48.720;9.094;2023-05-10T04:32:24;764.47;;;716.33;;
3591;SDS011;1810;48.720;9.094;2023-05-10T04:34:54;768.97;;;720.88;;
3591;SDS011;1810;48.720;9.094;2023-05-10T04:37:25;778.65;;;729.15;;
3591;SDS011;1810;48.720;9.094;2023-05-10T04:39:54;756.20;;;709.20;;
3591;SDS011;1810;48.720;9.094;2023-05-10T04:42:22;778.10;;;728.03;;
3591;SDS011;1810;48.720;9.094;2023-05-10T04:44:51;765.22;;;717.03;;
3591;SDS011;1810;48.720;9.094;2023-05-10T04:47:19;755.15;;;708.60;;
3591;SDS011;1810;48.720;9.094;2023-05-10T04:49:48;772.15;;;723.00;;
3591;SDS011;1810;48.720;9.094;2023-05-10T04:52:17;761.50;;;712.30;;
3591;SDS011;1810;48.720;9.094;2023-05-10T04:54:46;738.88;;;693.22;;
3591;SDS011;1810;48.720;9.094;2023-05-10T04:57:14;738.35;;;692.80;;
3591;SDS011;1810;48.720;9.094;2023-05-10T04:59:43;778.60;;;729.45;;
3591;SDS011;1810;48.720;9.094;2023-05-10T05:02:15;740.00;;;694.40;;
3591;SDS011;1810;48.720;9.094;2023-05-10T05:04:43;705.72;;;663.97;;
3591;SDS011;1810;48.720;9.094;2023-05-10T05:07:12;792.97;;;742.45;;
3591;SDS011;1810;48.720;9.094;2023-05-10T05:09:44;723.25;;;679.72;;
3591;SDS011;1810;48.720;9.094;2023-05-10T05:12:16;785.95;;;735.30;;
3591;SDS011;1810;48.720;9.094;2023-05-10T05:14:46;769.22;;;720.83;;
3591;SDS011;1810;48.720;9.094;2023-05-10T05:17:23;735.67;;;690.85;;
3591;SDS011;1810;48.720;9.094;2023-05-10T05:19:51;751.75;;;704.58;;
3591;SDS011;1810;48.720;9.094;2023-05-10T05:22:24;746.88;;;700.80;;
3591;SDS011;1810;48.720;9.094;2023-05-10T05:24:56;786.75;;;735.67;;
3591;SDS011;1810;48.720;9.094;2023-05-10T05:27:25;775.08;;;725.83;;
3591;SDS011;1810;48.720;9.094;2023-05-10T05:29:54;754.50;;;707.17;;
3591;SDS011;1810;48.720;9.094;2023-05-10T05:32:23;728.50;;;684.60;;
3591;SDS011;1810;48.720;9.094;2023-05-10T05:34:54;727.15;;;682.95;;
3591;SDS011;1810;48.720;9.094;2023-05-10T05:37:22;801.53;;;748.15;;
3591;SDS011;1810;48.720;9.094;2023-05-10T05:39:51;726.45;;;682.33;;
3591;SDS011;1810;48.720;9.094;2023-05-10T05:42:22;738.45;;;693.50;;
3591;SDS011;1810;48.720;9.094;2023-05-10T05:44:51;739.38;;;693.78;;
3591;SDS011;1810;48.720;9.094;2023-05-10T05:47:20;740.42;;;695.15;;
3591;SDS011;1810;48.720;9.094;2023-05-10T05:49:49;786.22;;;736.35;;
3591;SDS011;1810;48.720;9.094;2023-05-10T05:52:17;877.55;;;813.35;;
3591;SDS011;1810;48.720;9.094;2023-05-10T05:54:47;758.78;;;710.75;;
3591;SDS011;1810;48.720;9.094;2023-05-10T05:57:16;700.33;;;658.85;;
3591;SDS011;1810;48.720;9.094;2023-05-10T05:59:46;704.70;;;662.67;;
3591;SDS011;1810;48.720;9.094;2023-05-10T06:02:14;760.75;;;712.92;;
3591;SDS011;1810;48.720;9.094;2023-05-10T06:04:43;726.78;;;682.53;;
3591;SDS011;1810;48.720;9.094;2023-05-10T06:07:12;748.10;;;701.92;;
3591;SDS011;1810;48.720;9.094;2023-05-10T06:09:40;756.05;;;708.72;;
3591;SDS011;1810;48.720;9.094;2023-05-10T06:12:09;767.05;;;718.67;;
3591;SDS011;1810;48.720;9.094;2023-05-10T06:14:38;781.95;;;732.30;;
3591;SDS011;1810;48.720;9.094;2023-05-10T06:17:15;739.22;;;692.95;;
3591;SDS011;1810;48.720;9.094;2023-05-10T06:19:44;756.92;;;709.53;;
3591;SDS011;1810;48.720;9.094;2023-05-10T06:22:13;795.97;;;744.97;;
3591;SDS011;1810;48.720;9.094;2023-05-10T06:24:42;785.83;;;735.38;;
3591;SDS011;1810;48.720;9.094;2023-05-10T06:27:11;776.95;;;726.45;;
3591;SDS011;1810;48.720;9.094;2023-05-10T06:29:39;756.75;;;709.20;;
3591;SDS011;1810;48.720;9.094;2023-05-10T06:32:08;864.22;;;805.03;;
3591;SDS011;1810;48.720;9.094;2023-05-10T06:34:37;758.88;;;710.42;;
3591;SDS011;1810;48.720;9.094;2023-05-10T06:37:06;824.30;;;769.55;;
3591;SDS011;1810;48.720;9.094;2023-05-10T06:39:34;767.80;;;719.25;;
3591;SDS011;1810;48.720;9.094;2023-05-10T06:42:03;756.05;;;708.47;;
3591;SDS011;1810;48.720;9.094;2023-05-10T06:44:32;753.65;;;706.53;;
3591;SDS011;1810;48.720;9.094;2023-05-10T06:47:00;761.88;;;714.25;;
3591;SDS011;1810;48.720;9.094;2023-05-10T06:49:29;750.92;;;704.00;;
3591;SDS011;1810;48.720;9.094;2023-05-10T06:51:59;726.22;;;682.22;;
3591;SDS011;1810;48.720;9.094;2023-05-10T06:54:27;746.38;;;700.13;;
3591;SDS011;1810;48.720;9.094;2023-05-10T06:56:56;738.70;;;692.95;;
3591;SDS011;1810;48.720;9.094;2023-05-10T06:59:26;731.63;;;687.25;;
3591;SDS011;1810;48.720;9.094;2023-05-10T07:01:55;724.72;;;680.15;;
3591;SDS011;1810;48.720;9.094;2023-05-10T07:04:23;743.97;;;698.00;;
3591;SDS011;1810;48.720;9.094;2023-05-10T07:06:52;710.20;;;667.38;;
3591;SDS011;1810;48.720;9.094;2023-05-10T07:09:22;757.95;;;710.10;;
3591;SDS011;1810;48.720;9.094;2023-05-10T07:11:51;757.83;;;710.08;;
3591;SDS011;1810;48.720;9.094;2023-05-10T07:14:20;824.80;;;770.47;;
3591;SDS011;1810;48.720;9.094;2023-05-10T07:16:49;804.88;;;752.85;;
3591;SDS011;1810;48.720;9.094;2023-05-10T07:19:17;800.38;;;747.92;;
3591;SDS011;1810;48.720;9.094;2023-05-10T07:21:46;858.85;;;800.88;;
3591;SDS011;1810;48.720;9.094;2023-05-10T07:24:17;909.65;;;840.33;;
3591;SDS011;1810;48.720;9.094;2023-05-10T07:26:47;810.83;;;758.13;;
3591;SDS011;1810;48.720;9.094;2023-05-10T07:29:15;811.25;;;758.67;;
3591;SDS011;1810;48.720;9.094;2023-05-10T07:31:44;799.97;;;747.95;;
3591;SDS011;1810;48.720;9.094;2023-05-10T07:34:13;791.83;;;740.80;;
3591;SDS011;1810;48.720;9.094;2023-05-10T07:36:41;800.95;;;748.75;;
3591;SDS011;1810;48.720;9.094;2023-05-10T07:39:10;818.03;;;764.72;;
3591;SDS011;1810;48.720;9.094;2023-05-10T07:41:53;916.80;;;848.90;;
3591;SDS011;1810;48.720;9.094;2023-05-10T07:44:21;843.72;;;787.35;;
3591;SDS011;1810;48.720;9.094;2023-05-10T07:46:50;810.70;;;758.05;;
3591;SDS011;1810;48.720;9.094;2023-05-10T07:49:18;835.88;;;780.28;;
3591;SDS011;1810;48.720;9.094;2023-05-10T07:51:47;795.08;;;743.80;;
3591;SDS011;1810;48.720;9.094;2023-05-10T07:54:16;813.13;;;759.63;;
3591;SDS011;1810;48.720;9.094;2023-05-10T07:56:45;793.10;;;741.92;;
3591;SDS011;1810;48.720;9.094;2023-05-10T07:59:16;817.88;;;764.47;;
3591;SDS011;1810;48.720;9.094;2023-05-10T08:01:44;823.88;;;769.35;;
3591;SDS011;1810;48.720;9.094;2023-05-10T08:04:13;801.50;;;749.22;;
3591;SDS011;1810;48.720;9.094;2023-05-10T08:06:42;957.25;;;882.35;;
3591;SDS011;1810;48.720;9.094;2023-05-10T08:09:10;798.47;;;746.92;;
3591;SDS011;1810;48.720;9.094;2023-05-10T08:11:39;807.25;;;755.13;;
3591;SDS011;1810;48.720;9.094;2023-05-10T08:14:07;818.10;;;764.50;;
3591;SDS011;1810;48.720;9.094;2023-05-10T08:16:37;796.80;;;745.25;;
3591;SDS011;1810;48.720;9.094;2023-05-10T08:19:06;796.78;;;744.92;;
3591;SDS011;1810;48.720;9.094;2023-05-10T08:21:34;795.90;;;744.25;;
3591;SDS011;1810;48.720;9.094;2023-05-10T08:24:03;788.58;;;737.88;;
3591;SDS011;1810;48.720;9.094;2023-05-10T08:26:33;775.35;;;725.42;;
3591;SDS011;1810;48.720;9.094;2023-05-10T08:29:01;777.97;;;728.25;;
3591;SDS011;1810;48.720;9.094;2023-05-10T08:31:30;781.58;;;731.47;;
3591;SDS011;1810;48.720;9.094;2023-05-10T08:34:00;772.13;;;721.97;;
3591;SDS011;1810;48.720;9.094;2023-05-10T08:36:29;815.05;;;761.45;;
3591;SDS011;1810;48.720;9.094;2023-05-10T08:38:58;818.58;;;764.30;;
3591;SDS011;1810;48.720;9.094;2023-05-10T08:41:26;814.55;;;761.50;;
3591;SDS011;1810;48.720;9.094;2023-05-10T08:43:55;894.17;;;831.80;;
3591;SDS011;1810;48.720;9.094;2023-05-10T08:46:25;816.05;;;762.65;;
3591;SDS011;1810;48.720;9.094;2023-05-10T08:48:54;780.25;;;729.83;;
3591;SDS011;1810;48.720;9.094;2023-05-10T08:51:25;787.13;;;736.30;;
3591;SDS011;1810;48.720;9.094;2023-05-10T08:53:56;773.95;;;724.08;;
3591;SDS011;1810;48.720;9.094;2023-05-10T08:56:49;763.38;;;714.22;;
3591;SDS011;1810;48.720;9.094;2023-05-10T08:59:19;787.35;;;736.17;;
3591;SDS011;1810;48.720;9.094;2023-05-10T09:01:47;798.08;;;746.30;;
3591;SDS011;1810;48.720;9.094;2023-05-10T09:04:18;793.35;;;741.28;;
3591;SDS011;1810;48.720;9.094;2023-05-10T09:06:52;801.57;;;749.17;;
3591;SDS011;1810;48.720;9.094;2023-05-10T09:09:21;817.90;;;763.95;;
3591;SDS011;1810;48.720;9.094;2023-05-10T09:11:52;802.95;;;750.33;;
3591;SDS011;1810;48.720;9.094;2023-05-10T09:14:23;813.78;;;760.30;;
3591;SDS011;1810;48.720;9.094;2023-05-10T09:16:53;806.83;;;753.72;;
3591;SDS011;1810;48.720;9.094;2023-05-10T09:19:23;931.03;;;862.55;;
3591;SDS011;1810;48.720;9.094;2023-05-10T09:21:53;856.47;;;798.97;;
3591;SDS011;1810;48.720;9.094;2023-05-10T09:24:25;842.33;;;786.50;;
3591;SDS011;1810;48.720;9.094;2023-05-10T09:26:55;805.65;;;753.35;;
3591;SDS011;1810;48.720;9.094;2023-05-10T09:29:25;804.72;;;752.42;;
3591;SDS011;1810;48.720;9.094;2023-05-10T09:31:55;782.83;;;732.20;;
3591;SDS011;1810;48.720;9.094;2023-05-10T09:34:28;798.97;;;747.08;;
3591;SDS011;1810;48.720;9.094;2023-05-10T09:37:00;781.30;;;730.67;;
3591;SDS011;1810;48.720;9.094;2023-05-10T09:39:31;794.45;;;743.05;;
3591;SDS011;1810;48.720;9.094;2023-05-10T09:42:03;890.53;;;826.33;;
3591;SDS011;1810;48.720;9.094;2023-05-10T09:44:34;810.55;;;758.10;;
3591;SDS011;1810;48.720;9.094;2023-05-10T09:47:04;780.47;;;730.15;;
3591;SDS011;1810;48.720;9.094;2023-05-10T09:49:33;803.40;;;750.78;;
3591;SDS011;1810;48.720;9.094;2023-05-10T09:52:04;857.50;;;799.53;;
3591;SDS011;1810;48.720;9.094;2023-05-10T09:54:34;811.17;;;757.88;;
3591;SDS011;1810;48.720;9.094;2023-05-10T09:57:03;810.35;;;757.20;;
3591;SDS011;1810;48.720;9.094;2023-05-10T09:59:34;894.20;;;830.63;;
3591;SDS011;1810;48.720;9.094;2023-05-10T10:02:03;914.55;;;849.13;;
3591;SDS011;1810;48.720;9.094;2023-05-10T10:04:32;835.88;;;780.38;;
3591;SDS011;1810;48.720;9.094;2023-05-10T10:07:08;818.78;;;764.88;;
3591;SDS011;1810;48.720;9.094;2023-05-10T10:09:37;828.30;;;773.97;;
3591;SDS011;1810;48.720;9.094;2023-05-10T10:12:06;824.45;;;769.80;;
3591;SDS011;1810;48.720;9.094;2023-05-10T10:14:46;828.03;;;772.90;;
3591;SDS011;1810;48.720;9.094;2023-05-10T10:17:15;818.30;;;764.83;;
3591;SDS011;1810;48.720;9.094;2023-05-10T10:19:45;811.05;;;757.88;;
3591;SDS011;1810;48.720;9.094;2023-05-10T10:22:16;862.75;;;804.13;;
3591;SDS011;1810;48.720;9.094;2023-05-10T10:24:45;817.42;;;764.13;;
3591;SDS011;1810;48.720;9.094;2023-05-10T10:27:16;822.05;;;767.95;;
3591;SDS011;1810;48.720;9.094;2023-05-10T10:29:58;860.65;;;801.88;;
3591;SDS011;1810;48.720;9.094;2023-05-10T10:32:30;829.03;;;774.55;;
3591;SDS011;1810;48.720;9.094;2023-05-10T10:35:06;819.78;;;766.17;;
3591;SDS011;1810;48.720;9.094;2023-05-10T10:37:44;798.95;;;746.85;;
3591;SDS011;1810;48.720;9.094;2023-05-10T10:40:23;788.17;;;737.03;;
3591;SDS011;1810;48.720;9.094;2023-05-10T10:42:53;789.42;;;737.78;;
3591;SDS011;1810;48.720;9.094;2023-05-10T10:45:22;781.33;;;730.55;;
3591;SDS011;1810;48.720;9.094;2023-05-10T10:50:54;754.58;;;706.50;;
3591;SDS011;1810;48.720;9.094;2023-05-10T10:53:27;771.78;;;722.05;;
3591;SDS011;1810;48.720;9.094;2023-05-10T10:56:06;742.30;;;695.58;;
3591;SDS011;1810;48.720;9.094;2023-05-10T10:58:39;860.00;;;798.63;;
3591;SDS011;1810;48.720;9.094;2023-05-10T11:01:13;865.47;;;805.03;;
3591;SDS011;1810;48.720;9.094;2023-05-10T11:04:16;819.33;;;764.90;;
3591;SDS011;1810;48.720;9.094;2023-05-10T11:06:47;735.75;;;689.75;;
3591;SDS011;1810;48.720;9.094;2023-05-10T11:09:18;763.08;;;714.90;;
3591;SDS011;1810;48.720;9.094;2023-05-10T11:11:48;788.80;;;738.03;;
3591;SDS011;1810;48.720;9.094;2023-05-10T11:14:21;742.92;;;696.72;;
3591;SDS011;1810;48.720;9.094;2023-05-10T11:16:51;804.08;;;750.92;;
3591;SDS011;1810;48.720;9.094;2023-05-10T11:22:48;747.80;;;700.92;;
3591;SDS011;1810;48.720;9.094;2023-05-10T11:25:27;753.40;;;705.55;;
3591;SDS011;1810;48.720;9.094;2023-05-10T11:28:00;796.55;;;744.80;;
3591;SDS011;1810;48.720;9.094;2023-05-10T11:30:44;760.75;;;712.67;;
3591;SDS011;1810;48.720;9.094;2023-05-10T11:33:16;825.55;;;770.55;;
3591;SDS011;1810;48.720;9.094;2023-05-10T11:35:46;753.53;;;706.08;;
3591;SDS011;1810;48.720;9.094;2023-05-10T11:38:15;774.28;;;724.88;;
3591;SDS011;1810;48.720;9.094;2023-05-10T11:40:47;853.05;;;794.10;;
3591;SDS011;1810;48.720;9.094;2023-05-10T11:43:23;777.33;;;727.08;;
3591;SDS011;1810;48.720;9.094;2023-05-10T11:45:56;791.90;;;740.58;;
3591;SDS011;1810;48.720;9.094;2023-05-10T11:48:57;799.75;;;748.00;;
3591;SDS011;1810;48.720;9.094;2023-05-10T11:51:33;759.85;;;711.40;;
3591;SDS011;1810;48.720;9.094;2023-05-10T11:54:06;785.75;;;735.40;;
3591;SDS011;1810;48.720;9.094;2023-05-10T11:56:40;803.85;;;751.30;;
3591;SDS011;1810;48.720;9.094;2023-05-10T11:59:13;811.35;;;758.47;;
3591;SDS011;1810;48.720;9.094;2023-05-10T12:01:42;788.53;;;737.72;;
3591;SDS011;1810;48.720;9.094;2023-05-10T12:04:12;833.13;;;777.97;;
3591;SDS011;1810;48.720;9.094;2023-05-10T12:06:55;801.30;;;749.00;;
3591;SDS011;1810;48.720;9.094;2023-05-10T12:09:29;777.30;;;727.55;;
3591;SDS011;1810;48.720;9.094;2023-05-10T12:12:11;806.83;;;753.47;;
3591;SDS011;1810;48.720;9.094;2023-05-10T12:14:46;790.55;;;739.28;;
3591;SDS011;1810;48.720;9.094;2023-05-10T12:17:27;858.97;;;799.17;;
3591;SDS011;1810;48.720;9.094;2023-05-10T12:19:58;820.63;;;766.88;;
3591;SDS011;1810;48.720;9.094;2023-05-10T12:22:40;758.65;;;709.53;;
3591;SDS011;1810;48.720;9.094;2023-05-10T12:25:11;848.40;;;790.95;;
3591;SDS011;1810;48.720;9.094;2023-05-10T12:27:42;790.97;;;739.20;;
3591;SDS011;1810;48.720;9.094;2023-05-10T12:30:20;781.25;;;731.08;;
3591;SDS011;1810;48.720;9.094;2023-05-10T12:32:59;764.92;;;716.10;;
3591;SDS011;1810;48.720;9.094;2023-05-10T12:38:28;821.10;;;767.17;;
3591;SDS011;1810;48.720;9.094;2023-05-10T12:40:57;826.33;;;772.30;;
3591;SDS011;1810;48.720;9.094;2023-05-10T12:43:32;796.60;;;744.33;;
3591;SDS011;1810;48.720;9.094;2023-05-10T12:46:05;798.20;;;746.17;;
3591;SDS011;1810;48.720;9.094;2023-05-10T12:48:34;808.78;;;755.70;;
3591;SDS011;1810;48.720;9.094;2023-05-10T12:51:04;794.72;;;743.38;;
3591;SDS011;1810;48.720;9.094;2023-05-10T12:53:35;775.80;;;725.55;;
3591;SDS011;1810;48.720;9.094;2023-05-10T12:56:07;780.90;;;730.53;;
3591;SDS011;1810;48.720;9.094;2023-05-10T12:58:37;760.63;;;711.40;;
3591;SDS011;1810;48.720;9.094;2023-05-10T13:01:06;780.53;;;730.13;;
3591;SDS011;1810;48.720;9.094;2023-05-10T13:03:35;852.17;;;793.10;;
3591;SDS011;1810;48.720;9.094;2023-05-10T13:06:06;781.10;;;730.58;;
3591;SDS011;1810;48.720;9.094;2023-05-10T13:08:49;773.50;;;724.10;;
3591;SDS011;1810;48.720;9.094;2023-05-10T13:11:18;776.33;;;726.15;;
3591;SDS011;1810;48.720;9.094;2023-05-10T13:13:47;742.42;;;695.88;;
3591;SDS011;1810;48.720;9.094;2023-05-10T13:16:16;787.60;;;736.95;;
3591;SDS011;1810;48.720;9.094;2023-05-10T13:18:44;782.90;;;731.78;;
3591;SDS011;1810;48.720;9.094;2023-05-10T13:21:13;878.50;;;815.22;;
3591;SDS011;1810;48.720;9.094;2023-05-10T13:23:41;753.88;;;705.50;;
3591;SDS011;1810;48.720;9.094;2023-05-10T13:26:11;761.33;;;712.22;;
3591;SDS011;1810;48.720;9.094;2023-05-10T13:28:39;746.22;;;699.30;;
3591;SDS011;1810;48.720;9.094;2023-05-10T13:31:07;791.78;;;741.85;;
3591;SDS011;1810;48.720;9.094;2023-05-10T13:33:36;762.17;;;713.42;;
3591;SDS011;1810;48.720;9.094;2023-05-10T13:36:05;762.95;;;713.88;;
3591;SDS011;1810;48.720;9.094;2023-05-10T13:38:34;846.25;;;789.10;;
3591;SDS011;1810;48.720;9.094;2023-05-10T13:41:03;793.63;;;741.65;;
3591;SDS011;1810;48.720;9.094;2023-05-10T13:43:33;758.35;;;709.85;;
3591;SDS011;1810;48.720;9.094;2023-05-10T13:46:02;848.70;;;792.08;;
3591;SDS011;1810;48.720;9.094;2023-05-10T13:48:30;737.22;;;690.88;;
3591;SDS011;1810;48.720;9.094;2023-05-10T13:51:00;782.90;;;732.75;;
3591;SDS011;1810;48.720;9.094;2023-05-10T13:53:28;793.95;;;742.63;;
3591;SDS011;1810;48.720;9.094;2023-05-10T13:55:57;757.58;;;709.72;;
3591;SDS011;1810;48.720;9.094;2023-05-10T13:58:25;865.70;;;806.35;;
3591;SDS011;1810;48.720;9.094;2023-05-10T14:00:55;757.53;;;709.25;;
3591;SDS011;1810;48.720;9.094;2023-05-10T14:03:24;811.78;;;756.50;;
3591;SDS011;1810;48.720;9.094;2023-05-10T14:05:52;821.20;;;766.70;;
3591;SDS011;1810;48.720;9.094;2023-05-10T14:08:21;734.85;;;690.03;;
3591;SDS011;1810;48.720;9.094;2023-05-10T14:10:49;712.55;;;668.80;;
3591;SDS011;1810;48.720;9.094;2023-05-10T14:13:18;763.33;;;715.13;;
3591;SDS011;1810;48.720;9.094;2023-05-10T14:15:47;669.90;;;630.78;;
3591;SDS011;1810;48.720;9.094;2023-05-10T14:18:17;762.42;;;713.33;;
3591;SDS011;1810;48.720;9.094;2023-05-10T14:20:45;742.95;;;696.35;;
3591;SDS011;1810;48.720;9.094;2023-05-10T14:23:14;749.28;;;702.25;;
3591;SDS011;1810;48.720;9.094;2023-05-10T14:25:42;744.08;;;697.83;;
3591;SDS011;1810;48.720;9.094;2023-05-10T14:28:11;733.70;;;687.88;;
3591;SDS011;1810;48.720;9.094;2023-05-10T14:30:39;691.90;;;650.47;;
3591;SDS011;1810;48.720;9.094;2023-05-10T14:33:08;695.35;;;654.13;;
3591;SDS011;1810;48.720;9.094;2023-05-10T14:35:38;752.15;;;705.00;;
3591;SDS011;1810;48.720;9.094;2023-05-10T14:38:06;737.78;;;692.30;;
3591;SDS011;1810;48.720;9.094;2023-05-10T14:40:34;717.33;;;673.65;;
3591;SDS011;1810;48.720;9.094;2023-05-10T14:43:03;799.33;;;746.95;;
3591;SDS011;1810;48.720;9.094;2023-05-10T14:45:31;727.17;;;681.90;;
3591;SDS011;1810;48.720;9.094;2023-05-10T14:48:00;886.40;;;823.20;;
3591;SDS011;1810;48.720;9.094;2023-05-10T14:50:30;732.38;;;687.10;;
3591;SDS011;1810;48.720;9.094;2023-05-10T14:53:03;785.42;;;733.92;;